createdAt,value
2022-10-04T00:02:24.747Z,98729.25
2022-10-04T00:05:26.859Z,98730.50
2022-10-04T00:08:51.636Z,98730.91
2022-10-04T00:11:54.655Z,98731.38
2022-10-04T00:14:59.859Z,98738.50
2022-10-04T00:18:07.680Z,98727.38
2022-10-04T00:21:09.977Z,98714.56
2022-10-04T00:24:23.334Z,98699.25
2022-10-04T00:27:26.665Z,98688.84
2022-10-04T00:30:37.422Z,98678.47
2022-10-04T00:33:49.114Z,98670.91
2022-10-04T00:36:55.360Z,98668.72
2022-10-04T00:40:12.044Z,98666.97
2022-10-04T00:43:41.029Z,98664.56
2022-10-04T00:46:43.228Z,98655.34
2022-10-04T00:49:45.252Z,98667.50
2022-10-04T00:53:00.607Z,98665.91
2022-10-04T00:56:04.175Z,98667.19
2022-10-04T00:59:33.347Z,98658.09
2022-10-04T01:02:43.933Z,98660.13
2022-10-04T01:05:53.220Z,98646.63
2022-10-04T01:09:00.487Z,98647.09
2022-10-04T01:12:17.589Z,98628.00
2022-10-04T01:15:49.137Z,98620.75
2022-10-04T01:18:51.334Z,98611.75
2022-10-04T01:22:05.434Z,98623.72
2022-10-04T01:25:07.734Z,98623.06
2022-10-04T01:28:09.863Z,98608.50
2022-10-04T01:31:12.061Z,98603.91
2022-10-04T01:34:19.346Z,98602.91
2022-10-04T01:37:21.486Z,98597.09
2022-10-04T01:40:23.759Z,98576.88
2022-10-04T01:43:30.454Z,98569.31
2022-10-04T01:46:36.409Z,98566.94
2022-10-04T01:49:39.209Z,98566.22
2022-10-04T01:53:08.650Z,98559.38
2022-10-04T01:56:19.787Z,98553.97
2022-10-04T01:59:34.339Z,98560.09
2022-10-04T02:03:02.200Z,98544.50
2022-10-04T02:06:06.144Z,98548.94
2022-10-04T02:09:33.870Z,98543.38
2022-10-04T02:12:35.972Z,98550.34
2022-10-04T02:15:39.803Z,98538.44
2022-10-04T02:18:43.641Z,98529.78
2022-10-04T02:21:46.844Z,98523.00
2022-10-04T02:24:49.023Z,98528.19
2022-10-04T02:27:53.970Z,98514.56
2022-10-04T02:31:14.888Z,98518.59
2022-10-04T02:34:18.977Z,98507.63
2022-10-04T02:37:23.680Z,98479.59
2022-10-04T02:40:31.138Z,98487.94
2022-10-04T02:43:48.417Z,98472.94
2022-10-04T02:47:14.609Z,98461.81
2022-10-04T02:50:24.726Z,98456.75
2022-10-04T02:54:03.370Z,98467.69
2022-10-04T02:57:05.910Z,98454.59
2022-10-04T03:00:20.190Z,98441.84
2022-10-04T03:03:28.602Z,98434.63
2022-10-04T03:06:32.461Z,98425.56
2022-10-04T03:09:35.367Z,98413.56
2022-10-04T03:12:38.999Z,98415.72
2022-10-04T03:15:41.133Z,98409.53
2022-10-04T03:18:43.266Z,98402.59
2022-10-04T03:21:46.770Z,98398.34
2022-10-04T03:24:51.806Z,98378.38
2022-10-04T03:27:54.231Z,98387.94
2022-10-04T03:30:57.256Z,98382.38
2022-10-04T03:33:59.340Z,98390.13
2022-10-04T03:37:01.548Z,98393.81
2022-10-04T03:40:04.581Z,98391.47
2022-10-04T03:43:06.947Z,98396.53
2022-10-04T03:46:09.029Z,98391.72
2022-10-04T03:49:18.181Z,98402.13
2022-10-04T03:52:30.277Z,98395.72
2022-10-04T03:55:40.472Z,98359.97
2022-10-04T03:58:42.517Z,98375.47
2022-10-04T04:02:11.272Z,98346.41
2022-10-04T04:05:32.019Z,98366.41
2022-10-04T04:08:38.496Z,98364.25
2022-10-04T04:11:40.727Z,98358.38
2022-10-04T04:14:42.960Z,98359.75
2022-10-04T04:17:47.374Z,98356.25
2022-10-04T04:20:51.730Z,98358.59
2022-10-04T04:24:03.656Z,98361.25
2022-10-04T04:27:05.765Z,98368.34
2022-10-04T04:30:08.411Z,98358.25
2022-10-04T04:33:21.096Z,98350.00
2022-10-04T04:36:23.342Z,98342.34
2022-10-04T04:39:34.367Z,98335.09
2022-10-04T04:42:36.564Z,98334.03
2022-10-04T04:45:39.086Z,98343.13
2022-10-04T04:48:45.127Z,98343.63
2022-10-04T04:51:51.507Z,98342.34
2022-10-04T04:54:54.370Z,98334.56
2022-10-04T04:57:57.332Z,98329.00
2022-10-04T05:01:15.984Z,98347.94
2022-10-04T05:04:23.019Z,98348.16
2022-10-04T05:07:25.107Z,98348.09
2022-10-04T05:10:33.705Z,98344.19
2022-10-04T05:13:47.698Z,98352.22
2022-10-04T05:16:55.778Z,98338.91
2022-10-04T05:19:59.323Z,98334.31
2022-10-04T05:23:01.438Z,98324.72
2022-10-04T05:26:04.628Z,98318.06
2022-10-04T05:29:18.270Z,98319.84
2022-10-04T05:32:41.301Z,98312.38
2022-10-04T05:36:09.691Z,98317.22
2022-10-04T05:39:16.962Z,98315.53
2022-10-04T05:42:45.267Z,98334.63
2022-10-04T05:45:47.559Z,98310.25
2022-10-04T05:49:00.549Z,98305.53
2022-10-04T05:52:05.766Z,98296.63
2022-10-04T05:55:23.901Z,98295.88
2022-10-04T05:58:51.882Z,98285.38
2022-10-04T06:02:18.260Z,98299.56
2022-10-04T06:05:58.230Z,98302.81
2022-10-04T06:09:15.282Z,98289.88
2022-10-04T06:12:31.737Z,98294.81
2022-10-04T06:16:03.187Z,98273.81
2022-10-04T06:19:29.883Z,98277.47
2022-10-04T06:22:33.215Z,98262.94
2022-10-04T06:26:12.531Z,98259.03
2022-10-04T06:29:21.003Z,98265.69
2022-10-04T06:32:45.946Z,98267.06
2022-10-04T06:36:35.193Z,98254.78
2022-10-04T06:39:39.658Z,98265.78
2022-10-04T06:43:17.935Z,98257.44
2022-10-04T06:46:45.122Z,98249.69
2022-10-04T06:50:28.569Z,98237.47
2022-10-04T06:53:54.907Z,98245.50
2022-10-04T06:57:23.942Z,98256.66
2022-10-04T07:00:29.775Z,98261.16
2022-10-04T07:04:02.512Z,98246.41
2022-10-04T07:07:25.101Z,98244.00
2022-10-04T07:10:49.635Z,98230.31
2022-10-04T07:14:06.463Z,98228.69
2022-10-04T07:17:19.915Z,98231.03
2022-10-04T07:20:27.244Z,98225.47
2022-10-04T07:23:45.154Z,98236.63
2022-10-04T07:26:49.146Z,98231.78
2022-10-04T07:29:59.351Z,98221.66
2022-10-04T07:33:01.423Z,98226.69
2022-10-04T07:36:10.289Z,98218.22
2022-10-04T07:39:42.218Z,98219.19
2022-10-04T07:42:50.812Z,98215.56
2022-10-04T07:45:52.993Z,98201.84
2022-10-04T07:49:02.139Z,98204.03
2022-10-04T07:52:36.424Z,98196.75
2022-10-04T07:56:10.667Z,98214.69
2022-10-04T08:00:00.003Z,98205.19
2022-10-04T08:03:26.639Z,98201.22
2022-10-04T08:07:00.533Z,98200.69
2022-10-04T08:10:41.311Z,98196.38
2022-10-04T08:14:09.845Z,98181.22
2022-10-04T08:17:15.799Z,98183.16
2022-10-04T08:20:34.523Z,98193.53
2022-10-04T08:23:51.886Z,98184.47
2022-10-04T08:27:35.421Z,98184.19
2022-10-04T08:31:21.487Z,98178.81
2022-10-04T08:34:53.830Z,98185.72
2022-10-04T08:38:33.277Z,98200.50
2022-10-04T08:41:50.026Z,98198.63
2022-10-04T08:45:28.922Z,98187.38
2022-10-04T08:48:49.183Z,98207.06
2022-10-04T08:52:09.719Z,98196.81
2022-10-04T08:55:41.863Z,98194.00
2022-10-04T08:59:17.610Z,98193.75
2022-10-04T09:02:40.097Z,98200.03
2022-10-04T09:06:16.646Z,98207.91
2022-10-04T09:09:37.104Z,98203.09
2022-10-04T09:13:19.115Z,98222.50
2022-10-04T09:16:49.383Z,98191.72
2022-10-04T09:20:13.919Z,98192.88
2022-10-04T09:23:31.703Z,98196.28
2022-10-04T09:27:01.699Z,98203.84
2022-10-04T09:30:15.332Z,98182.16
2022-10-04T09:33:46.313Z,98152.22
2022-10-04T09:37:12.848Z,98172.38
2022-10-04T09:40:34.696Z,98162.59
2022-10-04T09:44:30.215Z,98165.22
2022-10-04T09:47:45.886Z,98171.94
2022-10-04T09:51:08.260Z,98156.81
2022-10-04T09:54:50.658Z,98173.88
2022-10-04T09:58:29.439Z,98175.16
2022-10-04T10:01:37.572Z,98172.25
2022-10-04T10:04:50.936Z,98163.13
2022-10-04T10:08:30.794Z,98171.69
2022-10-04T10:12:15.975Z,98163.59
2022-10-04T10:15:59.533Z,98167.41
2022-10-04T10:20:09.085Z,98173.41
2022-10-04T10:23:51.701Z,98170.94
2022-10-04T10:27:20.270Z,98135.81
2022-10-04T10:30:48.795Z,98161.91
2022-10-04T10:34:34.468Z,98169.88
2022-10-04T10:38:06.534Z,98155.94
2022-10-04T10:41:45.527Z,98154.47
2022-10-04T10:45:28.483Z,98167.41
2022-10-04T10:49:13.509Z,98156.06
2022-10-04T10:52:46.128Z,98154.00
2022-10-04T10:56:19.226Z,98152.59
2022-10-04T10:59:42.901Z,98158.84
2022-10-04T11:03:21.793Z,98152.59
2022-10-04T11:07:16.385Z,98150.78
2022-10-04T11:10:18.336Z,98150.59
2022-10-04T11:13:36.903Z,98144.56
2022-10-04T11:17:06.423Z,98124.25
2022-10-04T11:20:37.778Z,98131.88
2022-10-04T11:24:07.450Z,98132.16
2022-10-04T11:27:49.573Z,98142.34
2022-10-04T11:31:26.815Z,98145.59
2022-10-04T11:35:15.427Z,98131.09
2022-10-04T11:38:48.814Z,98113.38
2022-10-04T11:42:30.918Z,98092.50
2022-10-04T11:45:38.221Z,98098.66
2022-10-04T11:49:14.131Z,98087.97
2022-10-04T11:52:38.161Z,98094.16
2022-10-04T11:55:43.164Z,98110.34
2022-10-04T11:59:22.456Z,98107.47
2022-10-04T12:03:02.838Z,98100.56
2022-10-04T12:07:02.871Z,98078.81
2022-10-04T12:10:35.565Z,98077.69
2022-10-04T12:14:02.356Z,98106.69
2022-10-04T12:17:19.833Z,98121.97
2022-10-04T12:20:58.163Z,98120.41
2022-10-04T12:24:04.670Z,98090.22
2022-10-04T12:27:39.155Z,98116.22
2022-10-04T12:31:08.670Z,98111.19
2022-10-04T12:34:19.583Z,98105.31
2022-10-04T12:37:34.404Z,98095.53
2022-10-04T12:40:51.452Z,98094.97
2022-10-04T12:44:24.232Z,98093.81
2022-10-04T12:47:59.496Z,98079.25
2022-10-04T12:51:52.159Z,98104.59
2022-10-04T12:55:35.230Z,98122.13
2022-10-04T12:59:24.174Z,98120.34
2022-10-04T13:03:02.787Z,98141.28
2022-10-04T13:06:25.515Z,98093.59
2022-10-04T13:10:12.134Z,98109.03
2022-10-04T13:13:48.315Z,98098.28
2022-10-04T13:17:34.640Z,98106.22
2022-10-04T13:21:04.198Z,98113.34
2022-10-04T13:24:56.501Z,98094.75
2022-10-04T13:28:05.691Z,98093.94
2022-10-04T13:31:45.971Z,98083.56
2022-10-04T13:35:14.550Z,98071.75
2022-10-04T13:38:43.687Z,98064.06
2022-10-04T13:42:30.247Z,98060.69
2022-10-04T13:46:06.216Z,98068.34
2022-10-04T13:50:03.159Z,98077.25
2022-10-04T13:53:26.288Z,98051.28
2022-10-04T13:57:14.573Z,98041.00
2022-10-04T14:01:26.544Z,98047.03
2022-10-04T14:04:42.772Z,98038.78
2022-10-04T14:08:21.448Z,98053.66
2022-10-04T14:11:41.758Z,98048.78
2022-10-04T14:15:12.123Z,98067.69
2022-10-04T14:18:36.130Z,98074.06
2022-10-04T14:22:24.015Z,98058.88
2022-10-04T14:25:35.113Z,98077.09
2022-10-04T14:28:42.695Z,98090.13
2022-10-04T14:32:20.352Z,98090.72
2022-10-04T14:35:53.345Z,98110.28
2022-10-04T14:39:35.615Z,98095.75
2022-10-04T14:42:52.739Z,98083.19
2022-10-04T14:46:32.013Z,98057.31
2022-10-04T14:50:00.256Z,98061.56
2022-10-04T14:53:23.727Z,98076.19
2022-10-04T14:56:59.289Z,98074.41
2022-10-04T15:00:10.820Z,98069.59
2022-10-04T15:03:55.327Z,98076.94
2022-10-04T15:07:54.072Z,98082.16
2022-10-04T15:11:11.646Z,98072.84
2022-10-04T15:14:39.568Z,98056.19
2022-10-04T15:17:55.382Z,98062.84
2022-10-04T15:21:48.503Z,98062.72
2022-10-04T15:24:51.490Z,98084.31
2022-10-04T15:27:54.532Z,98084.84
2022-10-04T15:31:23.375Z,98091.94
2022-10-04T15:35:03.639Z,98094.31
2022-10-04T15:38:39.348Z,98095.97
2022-10-04T15:42:21.169Z,98100.13
2022-10-04T15:46:03.515Z,98112.81
2022-10-04T15:49:25.821Z,98094.53
2022-10-04T15:53:24.355Z,98079.13
2022-10-04T15:56:35.979Z,98088.19
2022-10-04T15:59:55.617Z,98085.16
2022-10-04T16:03:10.764Z,98087.88
2022-10-04T16:06:29.054Z,98079.28
2022-10-04T16:10:01.086Z,98060.56
2022-10-04T16:13:57.239Z,98066.34
2022-10-04T16:17:25.545Z,98062.22
2022-10-04T16:20:34.234Z,98048.19
2022-10-04T16:23:37.055Z,98040.78
2022-10-04T16:26:42.047Z,98050.22
2022-10-04T16:30:32.696Z,98034.81
2022-10-04T16:33:43.185Z,98036.78
2022-10-04T16:37:13.936Z,98029.34
2022-10-04T16:40:31.415Z,98030.53
2022-10-04T16:43:33.505Z,98032.25
2022-10-04T16:46:46.232Z,98043.97
2022-10-04T16:49:54.940Z,98053.03
2022-10-04T16:53:23.655Z,98048.69
2022-10-04T16:56:28.129Z,98051.25
2022-10-04T16:59:39.420Z,98042.97
2022-10-04T17:03:00.456Z,98031.59
2022-10-04T17:06:13.681Z,98016.84
2022-10-04T17:09:32.635Z,97989.13
2022-10-04T17:12:48.924Z,98002.59
2022-10-04T17:16:13.927Z,98017.84
2022-10-04T17:19:35.973Z,98022.81
2022-10-04T17:23:03.167Z,98034.66
2022-10-04T17:26:35.492Z,98059.28
2022-10-04T17:29:58.549Z,98063.06
2022-10-04T17:33:22.808Z,98067.72
2022-10-04T17:36:45.170Z,98073.00
2022-10-04T17:40:13.159Z,98075.28
2022-10-04T17:44:15.021Z,98073.34
2022-10-04T17:47:27.520Z,98082.81
2022-10-04T17:51:05.118Z,98082.16
2022-10-04T17:54:40.872Z,98096.31
2022-10-04T17:57:55.777Z,98086.91
2022-10-04T18:01:30.282Z,98090.44
2022-10-04T18:04:34.819Z,98081.25
2022-10-04T18:07:44.409Z,98086.34
2022-10-04T18:10:50.575Z,98090.66
2022-10-04T18:14:31.011Z,98086.78
2022-10-04T18:17:49.763Z,98082.88
2022-10-04T18:20:54.802Z,98058.69
2022-10-04T18:24:16.363Z,98058.25
2022-10-04T18:27:23.434Z,98058.34
2022-10-04T18:30:26.247Z,98056.19
2022-10-04T18:33:49.945Z,98067.09
2022-10-04T18:37:05.846Z,98060.97
2022-10-04T18:40:35.275Z,98069.19
2022-10-04T18:44:00.591Z,98063.22
2022-10-04T18:47:12.452Z,98061.47
2022-10-04T18:50:24.348Z,98062.44
2022-10-04T18:54:06.701Z,98045.84
2022-10-04T18:57:27.230Z,98050.66
2022-10-04T19:01:13.868Z,98059.19
2022-10-04T19:05:06.931Z,98044.03
2022-10-04T19:08:39.014Z,98045.28
2022-10-04T19:11:54.464Z,98061.97
2022-10-04T19:15:22.500Z,98051.06
2022-10-04T19:18:42.634Z,98057.41
2022-10-04T19:21:54.887Z,98050.94
2022-10-04T19:25:35.403Z,98038.94
2022-10-04T19:28:37.871Z,98034.69
2022-10-04T19:31:54.976Z,98037.72
2022-10-04T19:35:19.082Z,98046.50
2022-10-04T19:39:02.738Z,98037.66
2022-10-04T19:42:16.450Z,98033.56
2022-10-04T19:45:33.425Z,98046.00
2022-10-04T19:48:49.907Z,98050.16
2022-10-04T19:51:56.338Z,98039.44
2022-10-04T19:55:26.362Z,98017.09
2022-10-04T19:59:09.192Z,98020.38
2022-10-04T20:02:12.029Z,98023.44
2022-10-04T20:05:24.624Z,98014.53
2022-10-04T20:09:02.570Z,98024.31
2022-10-04T20:12:05.554Z,98013.66
2022-10-04T20:15:35.204Z,98005.94
2022-10-04T20:18:41.159Z,98002.72
2022-10-04T20:21:43.358Z,98006.06
2022-10-04T20:24:45.311Z,97983.81
2022-10-04T20:27:47.257Z,97980.19
2022-10-04T20:30:57.733Z,97988.31
2022-10-04T20:34:35.640Z,97993.53
2022-10-04T20:38:13.549Z,97979.94
2022-10-04T20:41:51.287Z,97985.16
2022-10-04T20:44:56.865Z,97982.59
2022-10-04T20:47:59.177Z,97982.19
2022-10-04T20:51:09.717Z,97979.09
2022-10-04T20:54:17.753Z,97980.88
2022-10-04T20:57:23.989Z,97967.09
2022-10-04T21:00:27.234Z,97965.25
2022-10-04T21:03:30.525Z,97952.16
2022-10-04T21:06:32.552Z,97938.31
2022-10-04T21:09:36.456Z,97942.88
2022-10-04T21:12:38.957Z,97945.91
2022-10-04T21:15:55.496Z,97943.63
2022-10-04T21:19:32.673Z,97936.84
2022-10-04T21:22:35.058Z,97925.72
2022-10-04T21:25:37.106Z,97917.31
2022-10-04T21:28:39.271Z,97903.09
2022-10-04T21:31:41.452Z,97891.03
2022-10-04T21:34:58.837Z,97886.69
2022-10-04T21:38:00.905Z,97886.53
2022-10-04T21:41:03.250Z,97875.19
2022-10-04T21:44:05.285Z,97869.16
2022-10-04T21:47:07.370Z,97864.56
2022-10-04T21:50:09.780Z,97870.78
2022-10-04T21:53:11.946Z,97883.13
2022-10-04T21:56:14.050Z,97880.78
2022-10-04T21:59:16.162Z,97874.78
2022-10-04T22:02:18.278Z,97886.16
2022-10-04T22:05:20.422Z,97888.47
2022-10-04T22:08:22.511Z,97875.81
2022-10-04T22:11:24.603Z,97874.56
2022-10-04T22:14:26.648Z,97863.88
2022-10-04T22:17:28.738Z,97855.34
2022-10-04T22:20:30.954Z,97840.56
2022-10-04T22:23:41.716Z,97835.56
2022-10-04T22:26:44.201Z,97829.88
2022-10-04T22:29:46.545Z,97836.94
2022-10-04T22:32:49.073Z,97829.97
2022-10-04T22:35:51.143Z,97842.22
2022-10-04T22:38:58.642Z,97832.59
2022-10-04T22:42:00.954Z,97819.69
2022-10-04T22:45:03.137Z,97794.66
2022-10-04T22:48:11.560Z,97788.53
2022-10-04T22:51:13.754Z,97771.56
2022-10-04T22:54:21.409Z,97760.59
2022-10-04T22:57:24.173Z,97744.72
2022-10-04T23:00:26.311Z,97740.72
2022-10-04T23:03:32.588Z,97737.53
2022-10-04T23:06:34.660Z,97739.00
2022-10-04T23:09:36.695Z,97742.94
2022-10-04T23:12:39.754Z,97729.47
2022-10-04T23:15:42.016Z,97726.72
2022-10-04T23:18:44.200Z,97712.47
2022-10-04T23:21:49.771Z,97717.09
2022-10-04T23:24:52.107Z,97710.03
2022-10-04T23:27:58.553Z,97680.38
2022-10-04T23:31:15.683Z,97683.19
2022-10-04T23:34:23.725Z,97678.63
2022-10-04T23:37:27.540Z,97679.13
2022-10-04T23:40:29.627Z,97672.63
2022-10-04T23:43:34.097Z,97672.16
2022-10-04T23:46:36.199Z,97659.31
2022-10-04T23:49:38.292Z,97653.81
2022-10-04T23:52:40.329Z,97656.84
2022-10-04T23:55:42.831Z,97645.56
2022-10-04T23:58:45.029Z,97640.75
